Terminal Aerodrome Forecast
Issued by NWS

Home | Current Version | Previous Version | Text Only | Print | Product List | Glossary On
Versions: 1 2 3 4 5 6 7 8 9 10 11 12 13 14 15 16 17 18 19 20 21 22 23 24 25 26 27 28 29 30 31 32 33 34 35 36 37 38 39 40 41 42 43 44 45 46 47 48
000
FTUS45 KBOU 200522
TAFAPA
TAF
KAPA 200522Z 2006/2106 07007KT 2SM -SN BR SCT013 OVC025
     FM200800 04007KT 5SM BR SCT005 BKN025
     FM201000 04008KT 3SM BR SCT004 OVC008
     FM201500 11004KT P6SM SCT015 BKN025
     FM201800 06007KT P6SM SCT030 OVC045
     FM210200 VRB04KT P6SM BKN060=

USA.gov is the U.S. government's official web portal to all federal, state and local government web resources and services.